Time;durP1;ratioP1;P1;durP2;ratioP2;P2;SDS_P1;SDS_P2;PMS_P1;PMS_P2;Temp;Humidity;BMP_temperature;BMP_pressure;BME280_temperature;BME280_humidity;BME280_pressure;Samples;Min_cycle;Max_cycle;Signal;HPM_P1;HPM_P2
2021/08/17 00:00:12;;;;;;;2.60;1.13;;;22.50;99.90;;;;;;5030510;28;20237;-94
2021/08/17 00:13:40;;;;;;;1.90;1.70;;;22.00;99.90;;;;;;5049131;28;20235;-92
2021/08/17 00:16:15;;;;;;;3.07;1.77;;;22.00;99.90;;;;;;5053665;28;20216;-92
2021/08/17 00:18:46;;;;;;;2.77;2.43;;;21.80;99.90;;;;;;5056551;28;20216;-91
2021/08/17 00:21:19;;;;;;;4.63;2.43;;;21.70;99.90;;;;;;5056356;28;20189;-91
2021/08/17 00:23:51;;;;;;;3.77;2.67;;;21.70;99.90;;;;;;5502377;22;20219;-92
2021/08/17 00:26:24;;;;;;;4.67;3.07;;;21.60;99.90;;;;;;5035360;28;20220;-93
2021/08/17 00:28:59;;;;;;;5.50;3.60;;;21.60;99.90;;;;;;5050651;28;20276;-92
2021/08/17 00:31:30;;;;;;;6.03;3.73;;;21.70;99.90;;;;;;5053066;28;20231;-93
2021/08/17 00:34:03;;;;;;;5.93;3.40;;;21.60;99.90;;;;;;5057347;28;20203;-89
2021/08/17 00:36:35;;;;;;;4.07;3.50;;;21.60;99.90;;;;;;5056951;28;20197;-90
2021/08/17 00:41:55;;;;;;;5.03;4.17;;;21.50;99.90;;;;;;5068788;22;20259;-91
2021/08/17 00:44:30;;;;;;;5.77;4.50;;;21.50;99.90;;;;;;5053488;28;20216;-91
2021/08/17 00:47:03;;;;;;;8.10;5.43;;;21.50;99.90;;;;;;5051627;28;20222;-93
2021/08/17 00:49:38;;;;;;;7.80;5.30;;;21.60;99.90;;;;;;5052309;28;20213;-92
2021/08/17 00:52:14;;;;;;;6.33;4.93;;;21.50;99.90;;;;;;5053552;28;20212;-92
2021/08/17 01:03:01;;;;;;;6.33;5.70;;;21.30;99.90;;;;;;5061212;28;20255;-93
2021/08/17 01:05:34;;;;;;;7.17;6.27;;;21.20;99.90;;;;;;5069028;28;20606;-92
2021/08/17 01:08:12;;;;;;;9.07;7.47;;;21.20;99.90;;;;;;5074068;28;20239;-92
2021/08/17 01:10:46;;;;;;;8.30;6.80;;;21.10;99.90;;;;;;5064655;28;20215;-92
2021/08/17 01:13:17;;;;;;;7.30;5.97;;;20.90;99.90;;;;;;5071961;28;20189;-92
2021/08/17 01:15:51;;;;;;;6.40;5.23;;;20.80;99.90;;;;;;5071154;28;20231;-91
2021/08/17 01:18:27;;;;;;;6.10;4.87;;;20.50;99.90;;;;;;5070640;28;20261;-93
2021/08/17 01:20:59;;;;;;;5.70;4.90;;;20.30;99.90;;;;;;5072572;28;20227;-92
2021/08/17 01:23:35;;;;;;;6.50;3.80;;;20.20;99.90;;;;;;5073016;28;20223;-93
2021/08/17 01:26:09;;;;;;;4.87;3.83;;;20.00;99.90;;;;;;5062669;28;20247;-90
2021/08/17 01:28:43;;;;;;;4.07;3.23;;;19.70;99.90;;;;;;5052678;28;20235;-92
2021/08/17 01:31:17;;;;;;;4.53;3.27;;;19.50;99.90;;;;;;5045957;28;20271;-92
2021/08/17 01:33:51;;;;;;;4.67;3.30;;;19.40;99.90;;;;;;5057617;28;20200;-92
2021/08/17 01:52:37;;;;;;;4.40;2.37;;;18.40;99.90;;;;;;5825203;22;20232;-91
2021/08/17 01:55:10;;;;;;;4.10;2.10;;;18.20;99.90;;;;;;5052898;28;20192;-91
2021/08/17 01:57:42;;;;;;;3.23;2.17;;;18.20;99.90;;;;;;5051792;28;20216;-91
2021/08/17 02:00:15;;;;;;;4.07;2.37;;;18.00;99.90;;;;;;5050597;28;20237;-95
2021/08/17 02:02:48;;;;;;;5.77;3.03;;;18.10;99.90;;;;;;5053090;28;20213;-92
2021/08/17 02:05:21;;;;;;;2.80;2.00;;;18.10;99.90;;;;;;5054760;28;20665;-92
2021/08/17 02:07:56;;;;;;;3.87;2.20;;;18.10;99.90;;;;;;5050570;28;20201;-92
2021/08/17 02:10:28;;;;;;;4.27;2.10;;;18.10;99.90;;;;;;5052594;28;20196;-91
2021/08/17 02:13:00;;;;;;;3.67;1.90;;;18.10;99.90;;;;;;5052508;28;20216;-91
2021/08/17 02:15:32;;;;;;;3.30;2.00;;;18.10;99.90;;;;;;5049922;28;20296;-91
2021/08/17 02:18:05;;;;;;;3.10;2.03;;;18.00;99.90;;;;;;5049419;28;20205;-91
2021/08/17 02:20:39;;;;;;;3.33;2.10;;;18.00;99.90;;;;;;5049875;28;20241;-92
2021/08/17 02:23:14;;;;;;;6.47;2.30;;;17.90;99.90;;;;;;5048045;28;20347;-91
2021/08/17 02:25:47;;;;;;;4.70;2.30;;;17.90;99.90;;;;;;5046166;28;20228;-91
2021/08/17 02:28:20;;;;;;;3.37;1.87;;;17.90;99.90;;;;;;5032939;28;20370;-93
2021/08/17 02:30:52;;;;;;;5.80;2.20;;;17.90;99.90;;;;;;5030778;28;20237;-93
2021/08/17 02:33:24;;;;;;;4.63;2.10;;;17.90;99.90;;;;;;5040934;28;20260;-92
2021/08/17 02:35:57;;;;;;;5.43;2.60;;;17.90;99.90;;;;;;5053754;28;20267;-93
2021/08/17 02:38:32;;;;;;;4.37;2.57;;;17.90;99.90;;;;;;5053337;28;20219;-92
2021/08/17 02:41:07;;;;;;;3.70;2.50;;;17.90;99.90;;;;;;5055730;28;20685;-91
2021/08/17 02:43:39;;;;;;;6.27;2.40;;;17.80;99.90;;;;;;5051317;28;20220;-93
2021/08/17 02:46:11;;;;;;;7.60;2.30;;;17.70;99.90;;;;;;5049378;28;20209;-92
2021/08/17 02:48:43;;;;;;;4.57;1.93;;;17.60;99.90;;;;;;5052700;28;20235;-92
2021/08/17 02:51:15;;;;;;;9.67;2.67;;;17.60;99.90;;;;;;5050972;28;20208;-91
2021/08/17 02:53:52;;;;;;;3.97;1.97;;;17.50;99.90;;;;;;5054408;28;20207;-90
2021/08/17 02:56:24;;;;;;;5.37;1.93;;;17.50;99.90;;;;;;5058143;28;20244;-91
2021/08/17 02:58:59;;;;;;;5.93;1.97;;;17.50;99.90;;;;;;5056255;28;20696;-92
2021/08/17 03:01:32;;;;;;;4.23;1.90;;;17.50;99.90;;;;;;5058436;28;20240;-93
2021/08/17 03:12:13;;;;;;;5.50;2.30;;;17.20;99.90;;;;;;5583873;22;20246;-91
2021/08/17 03:14:47;;;;;;;6.40;2.20;;;17.10;99.90;;;;;;5039570;28;20201;-91
2021/08/17 03:17:19;;;;;;;4.43;2.00;;;17.00;99.90;;;;;;5038931;28;20197;-91
2021/08/17 03:22:26;;;;;;;5.43;2.60;;;17.00;99.90;;;;;;5547812;22;20248;-91
2021/08/17 03:24:58;;;;;;;5.20;2.27;;;17.00;99.90;;;;;;5055086;28;20209;-91
2021/08/17 03:27:31;;;;;;;6.20;2.17;;;17.00;99.90;;;;;;5054330;28;20209;-91
2021/08/17 03:30:03;;;;;;;2.73;1.60;;;17.00;99.90;;;;;;5037856;28;20208;-91
2021/08/17 03:32:36;;;;;;;3.47;1.93;;;17.10;99.90;;;;;;5053227;28;20205;-92
2021/08/17 03:35:10;;;;;;;7.20;2.10;;;17.10;99.90;;;;;;5052510;28;20252;-91
2021/08/17 03:37:45;;;;;;;6.23;2.10;;;17.00;99.90;;;;;;5037727;28;20208;-92
2021/08/17 03:40:20;;;;;;;5.80;2.50;;;17.00;99.90;;;;;;5053561;28;20232;-94
2021/08/17 03:42:55;;;;;;;5.67;1.90;;;16.90;99.90;;;;;;5055471;28;20215;-91
2021/08/17 03:45:27;;;;;;;7.20;2.43;;;16.90;99.90;;;;;;5033953;28;20209;-89
2021/08/17 03:47:58;;;;;;;6.60;2.13;;;16.90;99.90;;;;;;5038229;28;20194;-90
2021/08/17 03:50:34;;;;;;;4.87;2.07;;;16.90;99.90;;;;;;5038052;28;20244;-92
2021/08/17 03:53:05;;;;;;;5.90;1.97;;;16.80;99.90;;;;;;5780571;22;20202;-90
2021/08/17 03:55:37;;;;;;;7.63;2.43;;;16.80;99.90;;;;;;5279869;22;20229;-91
2021/08/17 03:58:12;;;;;;;4.23;2.30;;;16.80;99.90;;;;;;5419119;22;20196;-92
2021/08/17 04:00:44;;;;;;;5.27;2.07;;;16.80;99.90;;;;;;5053363;28;20616;-93
2021/08/17 04:03:15;;;;;;;6.73;2.27;;;16.70;99.90;;;;;;5049060;28;20205;-93
2021/08/17 04:05:47;;;;;;;4.60;1.93;;;16.70;99.90;;;;;;5051739;28;20205;-94
2021/08/17 04:08:19;;;;;;;6.33;2.20;;;16.70;99.90;;;;;;5049445;28;20209;-91
2021/08/17 04:10:51;;;;;;;5.17;2.40;;;16.60;99.90;;;;;;5048068;28;20680;-91
2021/08/17 04:13:26;;;;;;;7.07;2.23;;;16.50;99.90;;;;;;5040857;28;20229;-91
2021/08/17 04:15:57;;;;;;;5.57;1.87;;;16.50;99.90;;;;;;5008445;28;20204;-90
2021/08/17 04:18:30;;;;;;;8.07;2.83;;;16.40;99.90;;;;;;5028569;28;20230;-91
2021/08/17 04:21:03;;;;;;;6.27;2.10;;;16.30;99.90;;;;;;5027329;28;20256;-91
2021/08/17 04:23:37;;;;;;;6.67;2.30;;;16.30;99.90;;;;;;5037612;28;20259;-91
2021/08/17 04:26:08;;;;;;;4.60;2.00;;;16.20;99.90;;;;;;5047543;28;20237;-91
2021/08/17 04:31:27;;;;;;;6.57;2.07;;;16.20;99.90;;;;;;5047465;28;20220;-92
2021/08/17 04:34:00;;;;;;;6.00;2.13;;;16.10;99.90;;;;;;5031915;28;20215;-91
2021/08/17 04:36:31;;;;;;;6.33;2.20;;;16.10;99.90;;;;;;5043238;28;20204;-91
2021/08/17 04:39:03;;;;;;;5.73;2.37;;;16.10;99.90;;;;;;5048305;28;20197;-91
2021/08/17 04:41:35;;;;;;;8.00;2.37;;;16.20;99.90;;;;;;5045593;28;20237;-93
2021/08/17 04:44:08;;;;;;;6.37;2.17;;;16.20;99.90;;;;;;5049494;28;20208;-92
2021/08/17 04:46:39;;;;;;;4.90;2.30;;;16.20;99.90;;;;;;5037032;28;20291;-92
2021/08/17 04:49:11;;;;;;;8.23;2.30;;;16.30;99.90;;;;;;5037585;28;20205;-92
2021/08/17 04:51:44;;;;;;;5.07;2.10;;;16.20;99.90;;;;;;5036306;28;20205;-93
2021/08/17 04:54:15;;;;;;;4.17;2.07;;;16.30;99.90;;;;;;5037912;28;20673;-92
2021/08/17 04:56:46;;;;;;;3.43;1.80;;;16.30;99.90;;;;;;5037019;28;20201;-92
2021/08/17 04:59:20;;;;;;;8.27;2.20;;;16.30;99.90;;;;;;5037277;28;20275;-93
2021/08/17 05:01:51;;;;;;;5.90;2.07;;;16.20;99.90;;;;;;5036402;28;20244;-91
2021/08/17 05:04:23;;;;;;;8.07;3.13;;;16.20;99.90;;;;;;5037388;28;20290;-91
2021/08/17 05:06:55;;;;;;;5.20;2.17;;;16.20;99.90;;;;;;5038394;28;20209;-91
2021/08/17 05:09:27;;;;;;;8.27;2.37;;;16.30;99.90;;;;;;5038934;28;20237;-90
2021/08/17 05:11:59;;;;;;;4.97;2.10;;;16.20;99.90;;;;;;5019509;28;20308;-90
2021/08/17 05:14:33;;;;;;;6.73;2.23;;;16.20;99.90;;;;;;5038379;28;20248;-93
2021/08/17 05:17:04;;;;;;;4.87;2.20;;;16.20;99.90;;;;;;5037481;28;20259;-92
2021/08/17 05:19:35;;;;;;;6.57;2.20;;;16.20;99.90;;;;;;5046156;28;20262;-91
2021/08/17 05:22:07;;;;;;;7.20;1.93;;;16.10;99.90;;;;;;5039541;28;20241;-91
2021/08/17 05:24:42;;;;;;;5.47;1.87;;;16.10;99.90;;;;;;5056581;28;20239;-92
2021/08/17 05:27:16;;;;;;;5.33;1.80;;;16.10;99.90;;;;;;5028968;28;20240;-90
2021/08/17 05:29:51;;;;;;;4.57;1.90;;;16.10;99.90;;;;;;5044541;28;20215;-91
2021/08/17 05:32:23;;;;;;;5.37;2.40;;;16.10;99.90;;;;;;5036863;28;20693;-90
2021/08/17 05:34:55;;;;;;;3.13;1.67;;;16.00;99.90;;;;;;5020655;28;20209;-90
2021/08/17 05:37:27;;;;;;;6.20;1.87;;;16.00;99.90;;;;;;5038496;28;20209;-91
2021/08/17 05:39:58;;;;;;;6.53;2.13;;;16.00;99.90;;;;;;5039489;28;20201;-92
2021/08/17 05:42:30;;;;;;;6.90;2.20;;;16.00;99.90;;;;;;5038536;28;20209;-92
2021/08/17 05:45:14;;;;;;;6.43;2.43;;;16.00;99.90;;;;;;5038487;28;20235;-92
2021/08/17 05:47:47;;;;;;;5.50;1.90;;;15.90;99.90;;;;;;5039327;28;20641;-91
2021/08/17 05:50:20;;;;;;;6.93;2.10;;;15.90;99.90;;;;;;5040162;28;20544;-92
2021/08/17 05:52:52;;;;;;;5.83;2.13;;;15.90;99.90;;;;;;5023438;28;20252;-92
2021/08/17 05:55:26;;;;;;;4.97;2.00;;;15.90;99.90;;;;;;5042786;28;20209;-92
2021/08/17 05:58:04;;;;;;;5.30;1.93;;;15.90;99.90;;;;;;5042216;28;20233;-92
2021/08/17 06:00:39;;;;;;;5.87;2.00;;;15.90;99.90;;;;;;5049691;28;20736;-93
2021/08/17 06:03:10;;;;;;;7.90;2.50;;;15.80;99.90;;;;;;5045265;28;20205;-92
2021/08/17 06:05:46;;;;;;;6.97;2.23;;;15.80;99.90;;;;;;5043317;28;20209;-92
2021/08/17 06:08:20;;;;;;;7.57;2.50;;;15.70;99.90;;;;;;5042881;28;20218;-92
2021/08/17 06:10:51;;;;;;;5.63;2.60;;;15.50;99.90;;;;;;5040578;28;20683;-92
2021/08/17 06:13:26;;;;;;;7.20;2.30;;;15.50;99.90;;;;;;5040511;28;20221;-91
2021/08/17 06:16:01;;;;;;;8.90;2.40;;;15.60;99.90;;;;;;5041576;28;20219;-92
2021/08/17 06:18:37;;;;;;;8.10;3.00;;;15.60;99.90;;;;;;5039664;28;20212;-91
2021/08/17 06:21:11;;;;;;;6.40;2.40;;;15.60;99.90;;;;;;5040270;28;20209;-91
2021/08/17 06:23:43;;;;;;;6.87;2.23;;;15.60;99.90;;;;;;5040153;28;20645;-91
2021/08/17 06:26:15;;;;;;;4.87;2.10;;;15.60;99.90;;;;;;5039549;28;20686;-91
2021/08/17 06:28:47;;;;;;;7.77;2.67;;;15.50;99.90;;;;;;5040023;28;20658;-91
2021/08/17 06:31:23;;;;;;;6.57;2.00;;;15.40;99.90;;;;;;5038908;28;20213;-91
2021/08/17 06:34:00;;;;;;;8.37;2.57;;;15.40;99.90;;;;;;5040164;28;20212;-90
2021/08/17 06:36:35;;;;;;;10.73;2.50;;;15.40;99.90;;;;;;5039604;28;20315;-88
2021/08/17 06:39:09;;;;;;;9.63;2.47;;;15.40;99.90;;;;;;5025802;28;20235;-91
2021/08/17 06:41:42;;;;;;;6.67;2.43;;;15.50;99.90;;;;;;5039573;28;20266;-91
2021/08/17 06:44:16;;;;;;;5.67;2.47;;;15.40;99.90;;;;;;5022725;28;20205;-91
2021/08/17 06:46:51;;;;;;;7.50;2.47;;;15.50;99.90;;;;;;5040041;28;20573;-91
2021/08/17 06:52:05;;;;;;;8.07;2.40;;;15.40;99.90;;;;;;5057817;28;20232;-91
2021/08/17 06:54:36;;;;;;;6.47;2.40;;;15.30;99.90;;;;;;5059513;28;20265;-91
2021/08/17 06:57:09;;;;;;;8.30;2.50;;;15.30;99.90;;;;;;5059145;28;20236;-91
2021/08/17 06:59:40;;;;;;;7.10;2.33;;;15.30;99.90;;;;;;5059558;28;20204;-91
2021/08/17 07:02:17;;;;;;;7.77;2.57;;;15.30;99.90;;;;;;5058069;28;20647;-91
2021/08/17 07:04:49;;;;;;;8.90;2.53;;;15.30;99.90;;;;;;5041605;28;20295;-93
2021/08/17 07:07:21;;;;;;;8.87;2.50;;;15.20;99.90;;;;;;5061687;28;20204;-91
2021/08/17 07:09:52;;;;;;;8.63;2.60;;;15.20;99.90;;;;;;5059419;28;20214;-90
2021/08/17 07:12:23;;;;;;;7.47;2.20;;;15.20;99.90;;;;;;5041232;28;20313;-91
2021/08/17 07:14:55;;;;;;;9.70;2.90;;;15.30;99.90;;;;;;5059441;28;20212;-91
2021/08/17 07:17:31;;;;;;;6.67;2.77;;;15.20;99.90;;;;;;5059442;28;20228;-90
2021/08/17 07:20:03;;;;;;;5.87;2.37;;;15.10;99.90;;;;;;5060617;28;20212;-91
2021/08/17 07:22:37;;;;;;;11.40;3.00;;;15.00;99.90;;;;;;5043082;28;20227;-91
2021/08/17 07:25:11;;;;;;;9.17;2.67;;;15.00;99.90;;;;;;5039591;28;20228;-92
2021/08/17 07:27:43;;;;;;;9.67;3.17;;;15.00;99.90;;;;;;5041085;28;20201;-91
2021/08/17 07:30:16;;;;;;;7.77;3.10;;;14.90;99.90;;;;;;5039883;28;20247;-90
2021/08/17 07:32:50;;;;;;;7.40;3.00;;;14.80;99.90;;;;;;5040732;28;20237;-90
2021/08/17 07:35:23;;;;;;;11.50;3.07;;;14.80;99.90;;;;;;5042539;28;20644;-91
2021/08/17 07:37:55;;;;;;;6.87;2.60;;;14.70;99.90;;;;;;5043833;28;20208;-91
2021/08/17 07:40:27;;;;;;;10.17;2.63;;;14.70;99.90;;;;;;5044853;28;20192;-92
2021/08/17 07:42:58;;;;;;;7.03;2.70;;;14.60;99.90;;;;;;5074718;28;20196;-92
2021/08/17 07:45:35;;;;;;;8.43;2.67;;;14.60;99.90;;;;;;5072992;28;20212;-92
2021/08/17 07:48:29;;;;;;;6.17;2.53;;;14.60;99.90;;;;;;5063275;28;20212;-92
2021/08/17 07:51:01;;;;;;;8.23;2.47;;;14.60;99.90;;;;;;5044914;28;20215;-92
2021/08/17 07:53:32;;;;;;;9.87;3.10;;;14.60;99.90;;;;;;5058589;28;20279;-92
2021/08/17 07:56:05;;;;;;;8.67;2.33;;;14.60;99.90;;;;;;5040221;28;20260;-92
2021/08/17 07:58:37;;;;;;;6.57;2.50;;;14.60;99.90;;;;;;5058371;28;20287;-92
2021/08/17 08:01:10;;;;;;;8.23;2.87;;;14.60;99.90;;;;;;5068077;28;20291;-92
2021/08/17 08:03:47;;;;;;;7.10;2.47;;;14.60;99.90;;;;;;5067582;28;20212;-92
2021/08/17 08:06:20;;;;;;;7.97;2.43;;;14.60;99.90;;;;;;5065316;28;20200;-91
2021/08/17 08:08:51;;;;;;;7.83;2.57;;;14.60;99.90;;;;;;5057330;28;20212;-92
2021/08/17 08:11:22;;;;;;;6.20;2.53;;;14.60;99.90;;;;;;5055789;28;20204;-92
2021/08/17 08:13:57;;;;;;;7.27;2.53;;;14.60;99.90;;;;;;5037691;28;20236;-91
2021/08/17 08:16:29;;;;;;;6.47;2.23;;;14.60;99.90;;;;;;5058111;28;20569;-91
2021/08/17 08:19:06;;;;;;;6.70;3.07;;;14.60;99.90;;;;;;5064837;28;20212;-91
2021/08/17 08:21:43;;;;;;;11.13;2.90;;;14.60;99.90;;;;;;5042348;28;20227;-91
2021/08/17 08:24:15;;;;;;;6.83;2.67;;;14.60;99.90;;;;;;5058549;28;20254;-91
2021/08/17 08:26:49;;;;;;;11.27;3.00;;;14.60;99.90;;;;;;5058061;28;20216;-91
2021/08/17 08:29:21;;;;;;;5.97;2.67;;;14.60;99.90;;;;;;5041776;28;20261;-90
2021/08/17 08:31:55;;;;;;;8.60;2.40;;;14.60;99.90;;;;;;5044302;28;20254;-90
2021/08/17 08:34:31;;;;;;;6.87;2.27;;;14.60;99.90;;;;;;5059379;28;20238;-92
2021/08/17 08:37:02;;;;;;;6.97;2.37;;;14.60;99.90;;;;;;5068876;28;20228;-91
2021/08/17 08:39:38;;;;;;;7.60;2.63;;;14.60;99.90;;;;;;5065160;28;20208;-91
2021/08/17 08:42:15;;;;;;;7.87;2.40;;;14.60;99.90;;;;;;5042536;28;20291;-91
2021/08/17 08:44:47;;;;;;;8.30;2.37;;;14.50;99.90;;;;;;5061087;28;20235;-91
2021/08/17 08:47:20;;;;;;;4.97;2.20;;;14.40;99.90;;;;;;5041413;28;20657;-92
2021/08/17 08:49:54;;;;;;;4.33;2.43;;;14.40;99.90;;;;;;5040294;28;20220;-89
2021/08/17 08:52:26;;;;;;;4.50;2.30;;;14.40;99.90;;;;;;5039800;28;20609;-91
2021/08/17 08:55:01;;;;;;;5.50;2.67;;;14.40;99.90;;;;;;5041909;28;20296;-92
2021/08/17 08:57:35;;;;;;;6.40;2.70;;;14.40;99.90;;;;;;5043023;28;20196;-92
2021/08/17 09:00:09;;;;;;;7.53;2.40;;;14.40;99.90;;;;;;5041946;28;20224;-92
2021/08/17 09:02:41;;;;;;;6.53;2.60;;;14.40;99.90;;;;;;5047273;28;20228;-92
2021/08/17 09:05:16;;;;;;;5.37;1.97;;;14.40;99.90;;;;;;5051448;28;20217;-92
2021/08/17 09:07:50;;;;;;;6.40;2.40;;;14.40;99.90;;;;;;5068038;28;20220;-91
2021/08/17 09:10:26;;;;;;;5.70;2.40;;;14.40;99.90;;;;;;5072236;28;20208;-92
2021/08/17 09:13:13;;;;;;;5.20;2.43;;;14.40;99.90;;;;;;5072533;28;20284;-92
2021/08/17 09:15:44;;;;;;;5.77;2.17;;;14.50;99.90;;;;;;5058657;28;20259;-90
2021/08/17 09:18:15;;;;;;;5.40;2.40;;;14.50;99.90;;;;;;5043999;28;20719;-90
2021/08/17 09:20:50;;;;;;;5.03;2.07;;;14.50;99.90;;;;;;5040591;28;20635;-91
2021/08/17 09:23:30;;;;;;;6.53;2.13;;;14.50;99.90;;;;;;5049960;28;20207;-91
2021/08/17 09:26:21;;;;;;;7.00;2.83;;;14.60;99.90;;;;;;5062030;28;20204;-92
2021/08/17 09:29:05;;;;;;;7.70;2.50;;;14.50;99.90;;;;;;5061463;28;20265;-91
2021/08/17 09:31:43;;;;;;;5.67;2.10;;;14.50;99.90;;;;;;5061075;28;20649;-91
2021/08/17 09:34:14;;;;;;;4.93;2.30;;;14.40;99.90;;;;;;5061584;28;20316;-91
2021/08/17 09:36:51;;;;;;;5.37;2.00;;;14.40;99.90;;;;;;5061541;28;20212;-92
2021/08/17 09:39:37;;;;;;;4.50;2.10;;;14.40;99.90;;;;;;5061523;28;20204;-91
2021/08/17 09:42:10;;;;;;;4.73;2.10;;;14.40;99.90;;;;;;5060686;28;20584;-91
2021/08/17 09:44:42;;;;;;;4.83;2.30;;;14.40;99.90;;;;;;5061530;28;20270;-91
2021/08/17 09:47:14;;;;;;;4.70;2.00;;;14.40;99.90;;;;;;5041184;28;20204;-92
2021/08/17 09:49:45;;;;;;;6.53;2.43;;;14.40;99.90;;;;;;5042076;28;20272;-91
2021/08/17 09:52:25;;;;;;;6.23;2.63;;;14.40;99.90;;;;;;5042711;28;20205;-91
2021/08/17 09:54:57;;;;;;;5.83;2.57;;;14.30;99.90;;;;;;5044124;28;20236;-90
2021/08/17 09:57:35;;;;;;;5.33;2.13;;;14.30;99.90;;;;;;5045964;28;20213;-91
2021/08/17 10:00:14;;;;;;;6.53;2.57;;;14.30;99.90;;;;;;5054185;28;20204;-91
2021/08/17 10:02:48;;;;;;;5.20;2.37;;;14.30;99.90;;;;;;5233093;22;20245;-89
2021/08/17 10:05:20;;;;;;;5.17;2.33;;;14.30;99.90;;;;;;5019981;28;20244;-92
2021/08/17 10:07:54;;;;;;;6.07;2.40;;;14.30;99.90;;;;;;5023705;28;20205;-91
2021/08/17 10:10:26;;;;;;;6.63;2.60;;;14.30;99.90;;;;;;5023326;28;20217;-91
2021/08/17 10:12:57;;;;;;;7.33;2.50;;;14.30;99.90;;;;;;5021406;28;20209;-91
2021/08/17 10:15:29;;;;;;;6.80;2.30;;;14.30;99.90;;;;;;5019970;28;20332;-91
2021/08/17 10:18:02;;;;;;;3.93;1.90;;;14.20;99.90;;;;;;5020687;28;20284;-91
2021/08/17 10:20:33;;;;;;;8.90;2.87;;;14.20;99.90;;;;;;5018888;28;20206;-91
2021/08/17 10:23:07;;;;;;;6.23;2.20;;;14.20;99.90;;;;;;5019779;28;20205;-91
2021/08/17 10:25:49;;;;;;;5.17;2.40;;;14.30;99.90;;;;;;5020099;28;20241;-90
2021/08/17 10:28:35;;;;;;;6.17;2.37;;;14.30;99.90;;;;;;5022252;28;20217;-91
2021/08/17 10:31:25;;;;;;;5.73;2.40;;;14.30;99.90;;;;;;5017618;28;20229;-91
2021/08/17 10:34:07;;;;;;;7.10;2.57;;;14.40;99.90;;;;;;5019620;28;20233;-90
2021/08/17 10:36:41;;;;;;;9.20;2.53;;;14.40;99.90;;;;;;5019188;28;20666;-91
2021/08/17 10:39:41;;;;;;;7.17;2.60;;;14.20;99.90;;;;;;5020046;28;20248;-89
2021/08/17 10:42:29;;;;;;;3.37;2.27;;;14.30;99.90;;;;;;5016173;28;20223;-91
2021/08/17 10:45:28;;;;;;;5.03;2.23;;;14.40;99.90;;;;;;5017580;28;20206;-91
2021/08/17 10:48:08;;;;;;;7.63;2.47;;;14.40;99.90;;;;;;4982613;28;20212;-91
2021/08/17 10:50:40;;;;;;;5.97;2.07;;;14.50;99.90;;;;;;4999015;28;20298;-91
2021/08/17 10:53:40;;;;;;;7.43;2.50;;;14.50;99.90;;;;;;4983238;28;20287;-91
2021/08/17 10:56:15;;;;;;;8.10;2.73;;;14.50;99.90;;;;;;4999438;28;20264;-92
2021/08/17 10:58:53;;;;;;;7.10;2.30;;;14.40;99.90;;;;;;5000036;28;20209;-91
2021/08/17 11:01:39;;;;;;;6.67;2.50;;;14.40;99.90;;;;;;4990752;28;20178;-91
2021/08/17 11:04:21;;;;;;;6.07;2.60;;;14.40;99.90;;;;;;5002691;28;20221;-91
2021/08/17 11:06:53;;;;;;;3.93;2.50;;;14.50;99.90;;;;;;5018203;28;20248;-91
2021/08/17 11:09:28;;;;;;;5.43;2.23;;;14.50;99.90;;;;;;5018276;28;20229;-91
2021/08/17 11:12:11;;;;;;;9.20;2.83;;;14.50;99.90;;;;;;5017318;28;20225;-92
2021/08/17 11:14:47;;;;;;;7.10;2.27;;;14.60;99.90;;;;;;5013694;28;20229;-90
2021/08/17 11:17:20;;;;;;;5.80;2.33;;;14.60;99.90;;;;;;4998362;28;20259;-92
2021/08/17 11:19:52;;;;;;;8.30;2.50;;;14.50;99.90;;;;;;4983829;28;20278;-91
2021/08/17 11:22:29;;;;;;;7.77;2.50;;;14.50;99.90;;;;;;4997159;28;20219;-91
2021/08/17 11:25:10;;;;;;;9.33;2.80;;;14.40;99.90;;;;;;4998093;28;20262;-91
2021/08/17 11:27:46;;;;;;;6.67;2.50;;;14.50;99.90;;;;;;4998096;28;20214;-91
2021/08/17 11:30:22;;;;;;;10.07;2.60;;;14.50;99.90;;;;;;4996890;28;20702;-91
2021/08/17 11:33:00;;;;;;;4.77;2.30;;;14.50;99.90;;;;;;4980955;28;20209;-91
2021/08/17 11:35:32;;;;;;;9.80;2.93;;;14.50;99.90;;;;;;4980737;28;20234;-91
2021/08/17 11:38:04;;;;;;;7.57;3.10;;;14.50;99.90;;;;;;4997833;28;20218;-90
2021/08/17 11:40:37;;;;;;;9.00;2.80;;;14.40;99.90;;;;;;4997156;28;20538;-92
2021/08/17 11:43:09;;;;;;;9.43;2.70;;;14.30;99.90;;;;;;4998504;28;20229;-89
2021/08/17 11:45:44;;;;;;;6.50;2.47;;;14.20;99.90;;;;;;4998075;28;20260;-90
2021/08/17 11:48:24;;;;;;;9.63;3.00;;;14.10;99.90;;;;;;4997285;28;20217;-91
2021/08/17 11:50:56;;;;;;;10.63;2.93;;;14.10;99.90;;;;;;4999039;28;20214;-90
2021/08/17 11:53:27;;;;;;;8.77;2.67;;;14.10;99.90;;;;;;4998981;28;20556;-92
2021/08/17 11:56:01;;;;;;;8.90;2.67;;;14.10;99.90;;;;;;4999370;28;20238;-91
2021/08/17 11:58:33;;;;;;;9.40;2.50;;;14.00;99.90;;;;;;4998807;28;20210;-91
2021/08/17 12:01:06;;;;;;;9.57;3.17;;;14.10;99.90;;;;;;5000624;28;20230;-92
2021/08/17 12:03:39;;;;;;;5.90;2.70;;;14.20;99.90;;;;;;4911743;28;2991795;-91
2021/08/17 12:06:13;;;;;;;8.00;2.90;;;14.20;99.90;;;;;;5000922;28;20285;-91
2021/08/17 12:08:45;;;;;;;9.77;3.50;;;14.20;99.90;;;;;;5000742;28;20233;-90
2021/08/17 12:11:26;;;;;;;9.43;2.73;;;14.10;99.90;;;;;;5003591;28;20206;-91
2021/08/17 12:13:57;;;;;;;8.13;2.77;;;14.10;99.90;;;;;;5000670;28;20261;-91
2021/08/17 12:16:32;;;;;;;6.17;2.73;;;14.20;99.90;;;;;;5002349;28;20247;-91
2021/08/17 12:19:03;;;;;;;11.33;3.07;;;14.10;99.90;;;;;;5008037;28;20572;-90
2021/08/17 12:21:35;;;;;;;7.10;3.90;;;14.00;99.90;;;;;;5025922;28;20197;-91
2021/08/17 12:24:22;;;;;;;12.17;3.17;;;14.10;99.90;;;;;;5061826;22;20243;-92
2021/08/17 12:27:01;;;;;;;8.20;2.70;;;14.00;99.90;;;;;;5088903;28;20207;-91
2021/08/17 12:29:40;;;;;;;10.20;2.90;;;14.10;99.90;;;;;;5087032;28;20280;-91
2021/08/17 12:32:21;;;;;;;7.80;2.80;;;14.20;99.90;;;;;;5076614;28;20294;-90
2021/08/17 12:34:54;;;;;;;8.20;2.60;;;14.20;99.90;;;;;;5077492;28;20227;-91
2021/08/17 12:37:29;;;;;;;8.30;3.07;;;14.00;99.90;;;;;;5077235;28;20207;-91
2021/08/17 12:40:08;;;;;;;8.17;3.23;;;14.10;99.90;;;;;;5077718;28;20199;-90
2021/08/17 12:42:44;;;;;;;10.73;3.30;;;13.90;99.90;;;;;;5077207;28;20248;-91
2021/08/17 12:45:30;;;;;;;12.57;3.97;;;13.80;99.90;;;;;;5081121;28;20222;-91
2021/08/17 12:48:05;;;;;;;9.03;3.80;;;13.90;99.90;;;;;;5081078;28;20249;-91
2021/08/17 12:50:40;;;;;;;13.03;3.53;;;14.00;99.90;;;;;;5059788;22;20667;-91
2021/08/17 12:53:22;;;;;;;7.23;3.10;;;14.00;99.90;;;;;;5017708;28;20205;-91
2021/08/17 12:55:58;;;;;;;7.87;2.73;;;14.00;99.90;;;;;;5016940;28;20603;-93
2021/08/17 12:58:30;;;;;;;7.30;2.97;;;14.10;99.90;;;;;;5017738;28;20288;-92
2021/08/17 13:01:02;;;;;;;7.43;3.20;;;14.10;99.90;;;;;;5038118;28;20214;-92
2021/08/17 13:03:40;;;;;;;4.83;2.67;;;14.00;99.90;;;;;;5023935;28;20196;-91
2021/08/17 13:06:11;;;;;;;7.33;2.77;;;13.90;99.90;;;;;;5024340;28;20288;-91
2021/08/17 13:08:45;;;;;;;8.83;3.30;;;14.00;99.90;;;;;;5023666;28;20526;-92
2021/08/17 13:11:17;;;;;;;10.33;3.00;;;14.10;99.90;;;;;;5006594;28;20309;-91
2021/08/17 13:13:49;;;;;;;10.30;3.47;;;14.00;99.90;;;;;;5004793;28;20225;-91
2021/08/17 13:16:20;;;;;;;7.93;3.10;;;14.00;99.90;;;;;;5004538;28;20232;-90
2021/08/17 13:18:53;;;;;;;8.47;3.07;;;14.00;99.90;;;;;;5004806;28;20220;-92
2021/08/17 13:21:26;;;;;;;9.90;3.50;;;14.00;99.90;;;;;;5003793;28;20209;-91
2021/08/17 13:23:57;;;;;;;7.40;2.60;;;13.80;99.90;;;;;;5003992;28;20210;-90
2021/08/17 13:26:31;;;;;;;6.67;2.80;;;13.70;99.90;;;;;;5005153;28;20220;-91
2021/08/17 13:29:15;;;;;;;7.80;2.60;;;13.70;99.90;;;;;;5006092;28;20278;-91
2021/08/17 13:31:52;;;;;;;7.90;3.20;;;13.60;99.90;;;;;;5005307;28;20269;-92
2021/08/17 13:34:27;;;;;;;8.60;3.20;;;13.70;99.90;;;;;;5005852;28;20241;-91
2021/08/17 13:37:00;;;;;;;10.77;3.33;;;13.80;99.90;;;;;;5021639;28;20233;-90
2021/08/17 13:39:32;;;;;;;10.17;2.90;;;13.70;99.90;;;;;;5023969;28;20209;-92
2021/08/17 13:42:09;;;;;;;11.37;3.23;;;13.70;99.90;;;;;;5024167;28;20240;-91
2021/08/17 13:44:42;;;;;;;7.77;2.60;;;13.80;99.90;;;;;;5030655;28;20190;-92
2021/08/17 13:47:14;;;;;;;5.70;3.23;;;13.80;99.90;;;;;;5033823;28;20300;-93
2021/08/17 13:49:50;;;;;;;13.63;3.67;;;13.80;99.90;;;;;;5029541;28;20251;-92
2021/08/17 13:52:25;;;;;;;12.43;3.13;;;13.90;99.90;;;;;;5011668;28;20262;-92
2021/08/17 13:54:57;;;;;;;9.33;2.80;;;13.80;99.90;;;;;;5026513;28;20209;-90
2021/08/17 13:57:28;;;;;;;10.83;3.07;;;13.70;99.90;;;;;;5030280;28;20300;-91
2021/08/17 13:59:59;;;;;;;11.30;3.77;;;13.80;99.90;;;;;;5046559;28;20205;-90
2021/08/17 14:02:34;;;;;;;9.67;3.03;;;13.80;99.90;;;;;;5046021;28;20593;-91
2021/08/17 14:05:11;;;;;;;10.63;3.10;;;13.80;99.90;;;;;;5047676;28;20204;-91
2021/08/17 14:07:43;;;;;;;11.43;3.57;;;13.80;99.90;;;;;;5047949;28;20212;-91
2021/08/17 14:10:14;;;;;;;11.90;3.10;;;13.70;99.90;;;;;;5058046;28;20272;-93
2021/08/17 14:12:46;;;;;;;13.23;3.23;;;13.60;99.90;;;;;;5053586;28;20220;-91
2021/08/17 14:15:18;;;;;;;11.23;3.43;;;13.60;99.90;;;;;;5027419;28;20212;-91